Spirit Of New York — WCW9332 — position and weather

sailwx.info

Track history (hours):
 
Tides and Currents Weather Stations Pressure Air Temp Water Temp Dewpoint Dewpoint Depression Visibility Wind Speed Wind Dir Waves Ship Positions

Spirit Of New York

Owner: SPIRIT CRUISES LLC, NEW YORK, NY. More information available from US FCC via Universal Licensing System and Coast Guard Vessel Documentation Center.

Last reported at 2015-Jul-01 17:34 UTC. Time now 2015-Jul-01 19:10 UTC.
Position N 40°43' W 074°01'.

Length 62 m.

Type: Passenger vessel. MMSI: 338897000.

Date/timePositionNaut miles runAvg speedWind from/ knotsBaromVisibWave heightAir tempDewpointWater temp
2015-Jul-01 17:34N 40°43' W 074°01'1 1.1
2015-Jul-01 16:34N 40°42' W 074°02'3 0.2
2015-Jul-01 01:33N 40°45' W 074°01'3 3.0
2015-Jul-01 00:33N 40°42' W 074°00'4 3.6
2015-Jun-30 23:33N 40°46' W 074°01'1 0.7
2015-Jun-30 22:33N 40°45' W 074°01'0 0.0
2015-Jun-30 01:28N 40°45' W 074°01'3 3.3
2015-Jun-30 00:33N 40°42' W 074°01'3 3.4
2015-Jun-29 23:33N 40°45' W 074°01'0 0.5
2015-Jun-29 22:33N 40°45' W 074°01'0 0.0
2015-Jun-29 21:33N 40°45' W 074°01'1 0.2
2015-Jun-29 17:33N 40°44' W 074°01'2 1.7
2015-Jun-29 16:33N 40°43' W 074°02'3 0.2
2015-Jun-29 02:29N 40°45' W 074°01'4 3.9
2015-Jun-29 01:33N 40°41' W 074°02'1 1.0
2015-Jun-29 00:33N 40°42' W 074°01'3 2.8
2015-Jun-28 23:33N 40°45' W 074°01'1 0.1
2015-Jun-28 17:33N 40°44' W 074°01'3 2.6
2015-Jun-28 16:33N 40°42' W 074°02'3 3.5
2015-Jun-28 15:33N 40°45' W 074°01'1 0.1
2015-Jun-28 01:33N 40°43' W 074°01'1 1.5
2015-Jun-28 00:33N 40°42' W 073°60'4 3.7
2015-Jun-27 23:33N 40°46' W 074°00'1 1.2
2015-Jun-27 22:33N 40°45' W 074°01'0 0.0
2015-Jun-27 21:33N 40°45' W 074°01'0 0.0
2015-Jun-27 20:33N 40°45' W 074°01'0 0.0
2015-Jun-27 19:33N 40°45' W 074°01'1 1.0
2015-Jun-27 18:33N 40°44' W 074°01'2 1.9
2015-Jun-27 17:33N 40°42' W 073°60'2 1.7
2015-Jun-27 16:33N 40°43' W 074°02'2 2.1
2015-Jun-27 15:33N 40°45' W 074°01'0 0.0
2015-Jun-27 14:33N 40°45' W 074°01'0 0.2
2015-Jun-27 13:33N 40°45' W 074°01'0 0.0
2015-Jun-27 00:33N 40°45' W 074°01'0 0.0
2015-Jun-26 05:12N 40°45' W 074°01'0 0.0
2015-Jun-26 04:33N 40°45' W 074°01'0 0.0
2015-Jun-26 03:33N 40°45' W 074°01'0 0.0
2015-Jun-26 02:33N 40°45' W 074°01'0 0.0
2015-Jun-26 01:33N 40°45' W 074°01'2 1.5
2015-Jun-26 00:33N 40°43' W 074°01'1 1.1
2015-Jun-25 23:33N 40°42' W 074°01'3 2.6
2015-Jun-25 22:33N 40°45' W 074°01'0 0.0
2015-Jun-25 21:33N 40°45' W 074°01'0 0.0
2015-Jun-25 20:33N 40°45' W 074°01'0 0.0
2015-Jun-25 19:33N 40°45' W 074°01'0 0.0
2015-Jun-25 18:33N 40°45' W 074°01'1 0.7
2015-Jun-25 17:33N 40°44' W 074°01'3 2.9
2015-Jun-25 16:33N 40°41' W 074°02'4 0.2
2015-Jun-25 01:26N 40°45' W 074°01'4 4.4
2015-Jun-25 00:33N 40°41' W 074°02'3 3.4
2015-Jun-24 23:33N 40°44' W 074°01'1 0.5
2015-Jun-24 22:33N 40°45' W 074°01'0 0.0
2015-Jun-24 21:33N 40°45' W 074°01'0 0.0
2015-Jun-24 20:33N 40°45' W 074°01'0 0.0
2015-Jun-24 19:33N 40°45' W 074°01'0 0.0
2015-Jun-24 18:33N 40°45' W 074°01'0 0.0
2015-Jun-24 17:33N 40°45' W 074°01'1 1.2
2015-Jun-24 16:33N 40°44' W 074°01'0 0.5
2015-Jun-24 15:33N 40°43' W 074°01'2 0.1
2015-Jun-24 01:33N 40°45' W 074°01'3 2.6
2015-Jun-24 00:33N 40°42' W 073°59'3 3.3
2015-Jun-23 23:33N 40°46' W 074°00'1 0.7
2015-Jun-23 22:33N 40°45' W 074°01'0 0.0
2015-Jun-23 21:33N 40°45' W 074°01'0 0.0
2015-Jun-23 20:33N 40°45' W 074°01'0 0.0
2015-Jun-23 19:33N 40°45' W 074°01'0 0.0
2015-Jun-23 19:05N 40°45' W 074°01'0 0.0
2015-Jun-22 18:22N 40°45' W 074°01'1 1.7
2015-Jun-22 17:34N 40°44' W 074°01'2 1.6
2015-Jun-22 16:34N 40°42' W 074°02'3 0.2
2015-Jun-22 02:16N 40°45' W 074°01'1 1.5
2015-Jun-22 01:33N 40°44' W 074°01'2 1.9
2015-Jun-22 00:33N 40°42' W 073°60'3 3.4
2015-Jun-21 23:33N 40°46' W 074°00'1 0.9
2015-Jun-21 22:33N 40°45' W 074°01'0 0.0
2015-Jun-21 21:33N 40°45' W 074°01'0 0.0
2015-Jun-21 20:33N 40°45' W 074°01'0 0.0
2015-Jun-21 19:33N 40°45' W 074°01'0 0.0
2015-Jun-21 18:33N 40°45' W 074°01'  
Track history (hours):
 
Tides and Currents Weather Stations Pressure Air Temp Water Temp Dewpoint Dewpoint Depression Visibility Wind Speed Wind Dir Waves Ship Positions

Spirit Of New York

Owner: SPIRIT CRUISES LLC, NEW YORK, NY. More information available from US FCC via Universal Licensing System and Coast Guard Vessel Documentation Center.

Last reported at 2015-Jul-01 17:34 UTC. Time now 2015-Jul-01 19:10 UTC.
Position N 40°43' W 074°01'.

Length 62 m.

Type: Passenger vessel. MMSI: 338897000.

Date/timePositionNaut miles runAvg speedWind from/ knotsBaromVisibWave heightAir tempDewpointWater temp
2015-Jul-01 17:34N 40°43' W 074°01'1 1.1
2015-Jul-01 16:34N 40°42' W 074°02'3 0.2
2015-Jul-01 01:33N 40°45' W 074°01'3 3.0
2015-Jul-01 00:33N 40°42' W 074°00'4 3.6
2015-Jun-30 23:33N 40°46' W 074°01'1 0.7
2015-Jun-30 22:33N 40°45' W 074°01'0 0.0
2015-Jun-30 01:28N 40°45' W 074°01'3 3.3
2015-Jun-30 00:33N 40°42' W 074°01'3 3.4
2015-Jun-29 23:33N 40°45' W 074°01'0 0.5
2015-Jun-29 22:33N 40°45' W 074°01'0 0.0
2015-Jun-29 21:33N 40°45' W 074°01'1 0.2
2015-Jun-29 17:33N 40°44' W 074°01'2 1.7
2015-Jun-29 16:33N 40°43' W 074°02'3 0.2
2015-Jun-29 02:29N 40°45' W 074°01'4 3.9
2015-Jun-29 01:33N 40°41' W 074°02'1 1.0
2015-Jun-29 00:33N 40°42' W 074°01'3 2.8
2015-Jun-28 23:33N 40°45' W 074°01'1 0.1
2015-Jun-28 17:33N 40°44' W 074°01'3 2.6
2015-Jun-28 16:33N 40°42' W 074°02'3 3.5
2015-Jun-28 15:33N 40°45' W 074°01'1 0.1
2015-Jun-28 01:33N 40°43' W 074°01'1 1.5
2015-Jun-28 00:33N 40°42' W 073°60'4 3.7
2015-Jun-27 23:33N 40°46' W 074°00'1 1.2
2015-Jun-27 22:33N 40°45' W 074°01'0 0.0
2015-Jun-27 21:33N 40°45' W 074°01'0 0.0
2015-Jun-27 20:33N 40°45' W 074°01'0 0.0
2015-Jun-27 19:33N 40°45' W 074°01'1 1.0
2015-Jun-27 18:33N 40°44' W 074°01'2 1.9
2015-Jun-27 17:33N 40°42' W 073°60'2 1.7
2015-Jun-27 16:33N 40°43' W 074°02'2 2.1
2015-Jun-27 15:33N 40°45' W 074°01'0 0.0
2015-Jun-27 14:33N 40°45' W 074°01'0 0.2
2015-Jun-27 13:33N 40°45' W 074°01'0 0.0
2015-Jun-27 00:33N 40°45' W 074°01'0 0.0
2015-Jun-26 05:12N 40°45' W 074°01'0 0.0
2015-Jun-26 04:33N 40°45' W 074°01'0 0.0
2015-Jun-26 03:33N 40°45' W 074°01'0 0.0
2015-Jun-26 02:33N 40°45' W 074°01'0 0.0
2015-Jun-26 01:33N 40°45' W 074°01'2 1.5
2015-Jun-26 00:33N 40°43' W 074°01'1 1.1
2015-Jun-25 23:33N 40°42' W 074°01'3 2.6
2015-Jun-25 22:33N 40°45' W 074°01'0 0.0
2015-Jun-25 21:33N 40°45' W 074°01'0 0.0
2015-Jun-25 20:33N 40°45' W 074°01'0 0.0
2015-Jun-25 19:33N 40°45' W 074°01'0 0.0
2015-Jun-25 18:33N 40°45' W 074°01'1 0.7
2015-Jun-25 17:33N 40°44' W 074°01'3 2.9
2015-Jun-25 16:33N 40°41' W 074°02'4 0.2
2015-Jun-25 01:26N 40°45' W 074°01'4 4.4
2015-Jun-25 00:33N 40°41' W 074°02'3 3.4
2015-Jun-24 23:33N 40°44' W 074°01'1 0.5
2015-Jun-24 22:33N 40°45' W 074°01'0 0.0
2015-Jun-24 21:33N 40°45' W 074°01'0 0.0
2015-Jun-24 20:33N 40°45' W 074°01'0 0.0
2015-Jun-24 19:33N 40°45' W 074°01'0 0.0
2015-Jun-24 18:33N 40°45' W 074°01'0 0.0
2015-Jun-24 17:33N 40°45' W 074°01'1 1.2
2015-Jun-24 16:33N 40°44' W 074°01'0 0.5
2015-Jun-24 15:33N 40°43' W 074°01'2 0.1
2015-Jun-24 01:33N 40°45' W 074°01'3 2.6
2015-Jun-24 00:33N 40°42' W 073°59'3 3.3
2015-Jun-23 23:33N 40°46' W 074°00'1 0.7
2015-Jun-23 22:33N 40°45' W 074°01'0 0.0
2015-Jun-23 21:33N 40°45' W 074°01'0 0.0
2015-Jun-23 20:33N 40°45' W 074°01'0 0.0
2015-Jun-23 19:33N 40°45' W 074°01'0 0.0
2015-Jun-23 19:05N 40°45' W 074°01'0 0.0
2015-Jun-22 18:22N 40°45' W 074°01'1 1.7
2015-Jun-22 17:34N 40°44' W 074°01'2 1.6
2015-Jun-22 16:34N 40°42' W 074°02'3 0.2
2015-Jun-22 02:16N 40°45' W 074°01'1 1.5
2015-Jun-22 01:33N 40°44' W 074°01'2 1.9
2015-Jun-22 00:33N 40°42' W 073°60'3 3.4
2015-Jun-21 23:33N 40°46' W 074°00'1 0.9
2015-Jun-21 22:33N 40°45' W 074°01'0 0.0
2015-Jun-21 21:33N 40°45' W 074°01'0 0.0
2015-Jun-21 20:33N 40°45' W 074°01'0 0.0
2015-Jun-21 19:33N 40°45' W 074°01'0 0.0
2015-Jun-21 18:33N 40°45' W 074°01'  

Dump ship's entire track history